sensor_id;sensor_type;location;lat;lon;timestamp;P1;durP1;ratioP1;P2;durP2;ratioP2
16039;SDS011;8124;48.634;8.120;2023-07-31T00:02:31;42.88;;;38.05;;
16039;SDS011;8124;48.634;8.120;2023-07-31T00:07:34;44.17;;;37.97;;
16039;SDS011;8124;48.634;8.120;2023-07-31T00:12:39;42.58;;;37.90;;
16039;SDS011;8124;48.634;8.120;2023-07-31T00:17:44;44.00;;;38.00;;
16039;SDS011;8124;48.634;8.120;2023-07-31T00:22:48;44.40;;;37.85;;
16039;SDS011;8124;48.634;8.120;2023-07-31T00:27:52;42.20;;;37.58;;
16039;SDS011;8124;48.634;8.120;2023-07-31T00:32:55;45.80;;;40.55;;
16039;SDS011;8124;48.634;8.120;2023-07-31T00:37:58;43.25;;;38.55;;
16039;SDS011;8124;48.634;8.120;2023-07-31T00:43:03;44.00;;;38.38;;
16039;SDS011;8124;48.634;8.120;2023-07-31T00:48:06;44.75;;;37.90;;
16039;SDS011;8124;48.634;8.120;2023-07-31T00:53:10;42.80;;;37.83;;
16039;SDS011;8124;48.634;8.120;2023-07-31T00:58:15;43.53;;;37.50;;
16039;SDS011;8124;48.634;8.120;2023-07-31T01:03:17;42.65;;;38.03;;
16039;SDS011;8124;48.634;8.120;2023-07-31T01:08:24;42.90;;;38.22;;
16039;SDS011;8124;48.634;8.120;2023-07-31T01:13:34;43.70;;;37.60;;
16039;SDS011;8124;48.634;8.120;2023-07-31T01:18:38;43.15;;;37.70;;
16039;SDS011;8124;48.634;8.120;2023-07-31T01:23:46;46.83;;;37.75;;
16039;SDS011;8124;48.634;8.120;2023-07-31T01:29:07;42.42;;;37.80;;
16039;SDS011;8124;48.634;8.120;2023-07-31T01:34:14;42.13;;;37.50;;
16039;SDS011;8124;48.634;8.120;2023-07-31T01:39:20;43.85;;;37.78;;
16039;SDS011;8124;48.634;8.120;2023-07-31T01:44:24;42.22;;;37.63;;
16039;SDS011;8124;48.634;8.120;2023-07-31T01:49:27;41.85;;;37.30;;
16039;SDS011;8124;48.634;8.120;2023-07-31T01:54:30;42.78;;;37.72;;
16039;SDS011;8124;48.634;8.120;2023-07-31T01:59:36;43.33;;;37.65;;
16039;SDS011;8124;48.634;8.120;2023-07-31T02:04:39;43.75;;;37.58;;
16039;SDS011;8124;48.634;8.120;2023-07-31T02:09:42;42.40;;;37.60;;
16039;SDS011;8124;48.634;8.120;2023-07-31T02:14:46;43.45;;;37.70;;
16039;SDS011;8124;48.634;8.120;2023-07-31T02:19:49;45.67;;;40.88;;
16039;SDS011;8124;48.634;8.120;2023-07-31T02:24:52;45.03;;;38.15;;
16039;SDS011;8124;48.634;8.120;2023-07-31T02:29:57;44.67;;;37.83;;
16039;SDS011;8124;48.634;8.120;2023-07-31T02:35:01;42.58;;;37.97;;
16039;SDS011;8124;48.634;8.120;2023-07-31T02:40:04;44.05;;;37.95;;
16039;SDS011;8124;48.634;8.120;2023-07-31T02:45:09;42.85;;;38.15;;
16039;SDS011;8124;48.634;8.120;2023-07-31T02:50:12;42.30;;;37.67;;
16039;SDS011;8124;48.634;8.120;2023-07-31T02:55:16;45.05;;;37.78;;
16039;SDS011;8124;48.634;8.120;2023-07-31T03:00:20;43.03;;;37.75;;
16039;SDS011;8124;48.634;8.120;2023-07-31T03:05:23;42.45;;;37.85;;
16039;SDS011;8124;48.634;8.120;2023-07-31T03:10:26;42.58;;;37.92;;
16039;SDS011;8124;48.634;8.120;2023-07-31T03:15:30;44.03;;;38.35;;
16039;SDS011;8124;48.634;8.120;2023-07-31T03:20:33;43.85;;;37.75;;
16039;SDS011;8124;48.634;8.120;2023-07-31T03:25:36;44.60;;;37.45;;
16039;SDS011;8124;48.634;8.120;2023-07-31T03:30:41;43.85;;;37.70;;
16039;SDS011;8124;48.634;8.120;2023-07-31T03:35:44;43.10;;;38.13;;
16039;SDS011;8124;48.634;8.120;2023-07-31T03:40:47;42.38;;;37.45;;
16039;SDS011;8124;48.634;8.120;2023-07-31T03:45:51;42.75;;;37.80;;
16039;SDS011;8124;48.634;8.120;2023-07-31T03:50:55;42.20;;;37.42;;
16039;SDS011;8124;48.634;8.120;2023-07-31T03:55:58;43.40;;;38.10;;
16039;SDS011;8124;48.634;8.120;2023-07-31T04:01:02;42.33;;;37.30;;
16039;SDS011;8124;48.634;8.120;2023-07-31T04:06:05;43.42;;;38.00;;
16039;SDS011;8124;48.634;8.120;2023-07-31T04:11:09;46.47;;;37.75;;
16039;SDS011;8124;48.634;8.120;2023-07-31T04:16:14;44.20;;;37.47;;
16039;SDS011;8124;48.634;8.120;2023-07-31T04:21:17;42.78;;;37.53;;
16039;SDS011;8124;48.634;8.120;2023-07-31T04:26:20;42.00;;;37.40;;
16039;SDS011;8124;48.634;8.120;2023-07-31T04:31:24;42.42;;;37.45;;
16039;SDS011;8124;48.634;8.120;2023-07-31T04:36:27;42.13;;;37.28;;
16039;SDS011;8124;48.634;8.120;2023-07-31T04:41:30;43.83;;;37.78;;
16039;SDS011;8124;48.634;8.120;2023-07-31T04:46:34;42.83;;;37.50;;
16039;SDS011;8124;48.634;8.120;2023-07-31T04:51:39;43.17;;;37.63;;
16039;SDS011;8124;48.634;8.120;2023-07-31T04:56:42;45.42;;;37.78;;
16039;SDS011;8124;48.634;8.120;2023-07-31T05:01:46;42.83;;;37.30;;
16039;SDS011;8124;48.634;8.120;2023-07-31T05:06:49;43.95;;;37.38;;
16039;SDS011;8124;48.634;8.120;2023-07-31T05:11:52;43.33;;;37.85;;
16039;SDS011;8124;48.634;8.120;2023-07-31T05:16:57;43.05;;;37.40;;
16039;SDS011;8124;48.634;8.120;2023-07-31T05:22:00;43.13;;;37.15;;
16039;SDS011;8124;48.634;8.120;2023-07-31T05:27:03;44.65;;;37.58;;
16039;SDS011;8124;48.634;8.120;2023-07-31T05:32:08;43.58;;;37.60;;
16039;SDS011;8124;48.634;8.120;2023-07-31T05:37:12;43.97;;;37.15;;
16039;SDS011;8124;48.634;8.120;2023-07-31T05:42:15;44.53;;;37.58;;
16039;SDS011;8124;48.634;8.120;2023-07-31T05:47:19;43.30;;;37.55;;
16039;SDS011;8124;48.634;8.120;2023-07-31T05:52:22;42.65;;;37.58;;
16039;SDS011;8124;48.634;8.120;2023-07-31T05:57:25;42.22;;;37.08;;
16039;SDS011;8124;48.634;8.120;2023-07-31T06:02:29;42.55;;;37.75;;
16039;SDS011;8124;48.634;8.120;2023-07-31T06:07:34;43.78;;;37.42;;
16039;SDS011;8124;48.634;8.120;2023-07-31T06:12:37;44.40;;;37.67;;
16039;SDS011;8124;48.634;8.120;2023-07-31T06:17:41;46.92;;;37.95;;
16039;SDS011;8124;48.634;8.120;2023-07-31T06:22:45;42.70;;;37.70;;
16039;SDS011;8124;48.634;8.120;2023-07-31T06:27:48;42.83;;;37.80;;
16039;SDS011;8124;48.634;8.120;2023-07-31T06:32:52;42.83;;;37.88;;
16039;SDS011;8124;48.634;8.120;2023-07-31T06:37:55;45.13;;;38.53;;
16039;SDS011;8124;48.634;8.120;2023-07-31T06:42:58;42.75;;;38.05;;
16039;SDS011;8124;48.634;8.120;2023-07-31T06:48:09;45.70;;;37.60;;
16039;SDS011;8124;48.634;8.120;2023-07-31T06:53:13;43.20;;;38.08;;
16039;SDS011;8124;48.634;8.120;2023-07-31T06:58:16;44.78;;;37.90;;
16039;SDS011;8124;48.634;8.120;2023-07-31T07:03:21;47.85;;;38.15;;
16039;SDS011;8124;48.634;8.120;2023-07-31T07:08:24;43.30;;;38.05;;
16039;SDS011;8124;48.634;8.120;2023-07-31T07:13:28;42.78;;;37.92;;
16039;SDS011;8124;48.634;8.120;2023-07-31T07:18:32;45.45;;;38.00;;
16039;SDS011;8124;48.634;8.120;2023-07-31T07:23:38;43.95;;;37.67;;
16039;SDS011;8124;48.634;8.120;2023-07-31T07:28:40;44.17;;;38.03;;
16039;SDS011;8124;48.634;8.120;2023-07-31T07:33:45;43.80;;;37.88;;
16039;SDS011;8124;48.634;8.120;2023-07-31T07:38:48;43.00;;;38.30;;
16039;SDS011;8124;48.634;8.120;2023-07-31T07:43:51;43.72;;;38.08;;
16039;SDS011;8124;48.634;8.120;2023-07-31T07:48:56;43.08;;;38.38;;
16039;SDS011;8124;48.634;8.120;2023-07-31T07:53:59;45.75;;;38.70;;
16039;SDS011;8124;48.634;8.120;2023-07-31T07:59:02;43.20;;;38.20;;
16039;SDS011;8124;48.634;8.120;2023-07-31T08:04:06;43.90;;;38.65;;
16039;SDS011;8124;48.634;8.120;2023-07-31T08:09:09;44.67;;;38.38;;
16039;SDS011;8124;48.634;8.120;2023-07-31T08:14:13;44.70;;;38.63;;
16039;SDS011;8124;48.634;8.120;2023-07-31T08:19:17;46.97;;;38.20;;
16039;SDS011;8124;48.634;8.120;2023-07-31T08:24:20;45.40;;;38.53;;
16039;SDS011;8124;48.634;8.120;2023-07-31T08:29:24;46.78;;;38.90;;
16039;SDS011;8124;48.634;8.120;2023-07-31T08:34:28;45.65;;;38.65;;
16039;SDS011;8124;48.634;8.120;2023-07-31T08:39:31;43.88;;;38.63;;
16039;SDS011;8124;48.634;8.120;2023-07-31T08:44:34;45.03;;;38.65;;
16039;SDS011;8124;48.634;8.120;2023-07-31T08:49:40;43.13;;;38.42;;
16039;SDS011;8124;48.634;8.120;2023-07-31T08:54:44;44.45;;;38.65;;
16039;SDS011;8124;48.634;8.120;2023-07-31T08:59:47;43.13;;;38.42;;
16039;SDS011;8124;48.634;8.120;2023-07-31T09:04:54;44.38;;;39.10;;
16039;SDS011;8124;48.634;8.120;2023-07-31T09:09:57;43.20;;;38.45;;
16039;SDS011;8124;48.634;8.120;2023-07-31T09:15:00;45.88;;;39.45;;
16039;SDS011;8124;48.634;8.120;2023-07-31T09:20:13;43.58;;;38.70;;
16039;SDS011;8124;48.634;8.120;2023-07-31T09:25:18;44.63;;;39.08;;
16039;SDS011;8124;48.634;8.120;2023-07-31T09:30:21;44.40;;;39.13;;
16039;SDS011;8124;48.634;8.120;2023-07-31T09:35:29;46.88;;;39.30;;
16039;SDS011;8124;48.634;8.120;2023-07-31T09:40:34;45.20;;;39.08;;
16039;SDS011;8124;48.634;8.120;2023-07-31T09:45:38;44.70;;;39.38;;
16039;SDS011;8124;48.634;8.120;2023-07-31T09:50:45;44.40;;;39.50;;
16039;SDS011;8124;48.634;8.120;2023-07-31T09:55:48;45.92;;;39.35;;
16039;SDS011;8124;48.634;8.120;2023-07-31T10:00:52;46.17;;;39.13;;
16039;SDS011;8124;48.634;8.120;2023-07-31T10:05:57;45.78;;;40.13;;
16039;SDS011;8124;48.634;8.120;2023-07-31T10:11:01;45.92;;;39.22;;
16039;SDS011;8124;48.634;8.120;2023-07-31T10:16:04;44.78;;;39.63;;
16039;SDS011;8124;48.634;8.120;2023-07-31T10:21:09;44.70;;;39.35;;
16039;SDS011;8124;48.634;8.120;2023-07-31T10:26:13;44.72;;;39.60;;
16039;SDS011;8124;48.634;8.120;2023-07-31T10:31:19;45.15;;;39.70;;
16039;SDS011;8124;48.634;8.120;2023-07-31T10:36:24;44.42;;;39.53;;
16039;SDS011;8124;48.634;8.120;2023-07-31T10:41:28;45.28;;;39.92;;
16039;SDS011;8124;48.634;8.120;2023-07-31T10:46:33;45.47;;;39.60;;
16039;SDS011;8124;48.634;8.120;2023-07-31T10:51:37;44.33;;;39.53;;
16039;SDS011;8124;48.634;8.120;2023-07-31T10:56:44;44.85;;;39.65;;
16039;SDS011;8124;48.634;8.120;2023-07-31T11:01:51;46.53;;;39.80;;
16039;SDS011;8124;48.634;8.120;2023-07-31T11:06:59;44.58;;;39.17;;
16039;SDS011;8124;48.634;8.120;2023-07-31T11:12:04;47.08;;;39.60;;
16039;SDS011;8124;48.634;8.120;2023-07-31T11:17:08;49.25;;;39.60;;
16039;SDS011;8124;48.634;8.120;2023-07-31T11:22:12;44.63;;;39.72;;
16039;SDS011;8124;48.634;8.120;2023-07-31T11:27:16;44.38;;;39.55;;
16039;SDS011;8124;48.634;8.120;2023-07-31T11:32:19;44.60;;;39.55;;
16039;SDS011;8124;48.634;8.120;2023-07-31T11:37:23;44.75;;;39.38;;
16039;SDS011;8124;48.634;8.120;2023-07-31T11:42:26;44.60;;;39.70;;
16039;SDS011;8124;48.634;8.120;2023-07-31T11:47:31;45.08;;;39.75;;
16039;SDS011;8124;48.634;8.120;2023-07-31T11:52:38;46.35;;;39.90;;
16039;SDS011;8124;48.634;8.120;2023-07-31T11:57:44;45.25;;;39.95;;
16039;SDS011;8124;48.634;8.120;2023-07-31T12:02:49;44.80;;;39.95;;
16039;SDS011;8124;48.634;8.120;2023-07-31T12:07:54;45.50;;;39.67;;
16039;SDS011;8124;48.634;8.120;2023-07-31T12:13:02;46.97;;;40.03;;
16039;SDS011;8124;48.634;8.120;2023-07-31T12:18:07;44.70;;;39.83;;
16039;SDS011;8124;48.634;8.120;2023-07-31T12:23:14;44.92;;;39.90;;
16039;SDS011;8124;48.634;8.120;2023-07-31T12:28:17;48.53;;;40.88;;
16039;SDS011;8124;48.634;8.120;2023-07-31T12:33:29;45.33;;;40.25;;
16039;SDS011;8124;48.634;8.120;2023-07-31T12:38:35;49.17;;;40.60;;
16039;SDS011;8124;48.634;8.120;2023-07-31T12:43:38;45.22;;;39.90;;
16039;SDS011;8124;48.634;8.120;2023-07-31T12:48:42;48.30;;;40.60;;
16039;SDS011;8124;48.634;8.120;2023-07-31T12:53:47;46.13;;;40.55;;
16039;SDS011;8124;48.634;8.120;2023-07-31T12:58:50;48.78;;;40.97;;
16039;SDS011;8124;48.634;8.120;2023-07-31T13:03:53;45.28;;;40.15;;
16039;SDS011;8124;48.634;8.120;2023-07-31T13:08:57;45.67;;;40.35;;
16039;SDS011;8124;48.634;8.120;2023-07-31T13:14:00;45.83;;;40.13;;
16039;SDS011;8124;48.634;8.120;2023-07-31T13:19:03;46.30;;;40.63;;
16039;SDS011;8124;48.634;8.120;2023-07-31T13:24:08;46.53;;;40.55;;
16039;SDS011;8124;48.634;8.120;2023-07-31T13:29:11;46.65;;;40.35;;
16039;SDS011;8124;48.634;8.120;2023-07-31T13:34:14;49.45;;;39.83;;
16039;SDS011;8124;48.634;8.120;2023-07-31T13:39:19;46.17;;;40.28;;
16039;SDS011;8124;48.634;8.120;2023-07-31T13:44:22;46.35;;;40.22;;
16039;SDS011;8124;48.634;8.120;2023-07-31T13:49:25;46.10;;;40.63;;
16039;SDS011;8124;48.634;8.120;2023-07-31T13:54:29;46.33;;;40.42;;
16039;SDS011;8124;48.634;8.120;2023-07-31T13:59:32;46.20;;;40.33;;
16039;SDS011;8124;48.634;8.120;2023-07-31T14:04:36;44.95;;;40.13;;
16039;SDS011;8124;48.634;8.120;2023-07-31T14:09:40;47.60;;;40.25;;
16039;SDS011;8124;48.634;8.120;2023-07-31T14:14:43;45.53;;;40.55;;
16039;SDS011;8124;48.634;8.120;2023-07-31T14:19:46;45.22;;;40.05;;
16039;SDS011;8124;48.634;8.120;2023-07-31T14:24:51;45.78;;;40.58;;
16039;SDS011;8124;48.634;8.120;2023-07-31T14:29:54;45.15;;;40.28;;
16039;SDS011;8124;48.634;8.120;2023-07-31T14:34:57;47.47;;;40.67;;
16039;SDS011;8124;48.634;8.120;2023-07-31T14:40:02;46.70;;;40.45;;
16039;SDS011;8124;48.634;8.120;2023-07-31T14:45:06;46.90;;;40.35;;
16039;SDS011;8124;48.634;8.120;2023-07-31T14:50:11;45.70;;;40.45;;
16039;SDS011;8124;48.634;8.120;2023-07-31T14:55:16;46.85;;;40.33;;
16039;SDS011;8124;48.634;8.120;2023-07-31T15:00:20;45.55;;;40.53;;
16039;SDS011;8124;48.634;8.120;2023-07-31T15:05:23;46.05;;;40.13;;
16039;SDS011;8124;48.634;8.120;2023-07-31T15:10:27;45.80;;;40.53;;
16039;SDS011;8124;48.634;8.120;2023-07-31T15:15:30;46.35;;;40.40;;
16039;SDS011;8124;48.634;8.120;2023-07-31T15:20:33;45.38;;;40.38;;
16039;SDS011;8124;48.634;8.120;2023-07-31T15:25:38;45.70;;;40.67;;
16039;SDS011;8124;48.634;8.120;2023-07-31T15:30:41;49.45;;;40.60;;
16039;SDS011;8124;48.634;8.120;2023-07-31T15:35:44;46.33;;;40.78;;
16039;SDS011;8124;48.634;8.120;2023-07-31T15:40:49;46.30;;;40.58;;
16039;SDS011;8124;48.634;8.120;2023-07-31T15:45:52;46.17;;;41.17;;
16039;SDS011;8124;48.634;8.120;2023-07-31T15:50:55;45.17;;;40.35;;
16039;SDS011;8124;48.634;8.120;2023-07-31T15:56:00;46.10;;;40.63;;
16039;SDS011;8124;48.634;8.120;2023-07-31T16:01:03;46.38;;;40.35;;
16039;SDS011;8124;48.634;8.120;2023-07-31T16:06:06;45.75;;;40.47;;
16039;SDS011;8124;48.634;8.120;2023-07-31T16:11:10;45.60;;;40.60;;
16039;SDS011;8124;48.634;8.120;2023-07-31T16:16:13;46.15;;;40.30;;
16039;SDS011;8124;48.634;8.120;2023-07-31T16:21:16;45.88;;;40.72;;
16039;SDS011;8124;48.634;8.120;2023-07-31T16:26:21;45.85;;;40.53;;
16039;SDS011;8124;48.634;8.120;2023-07-31T16:31:24;46.85;;;40.53;;
16039;SDS011;8124;48.634;8.120;2023-07-31T16:36:27;47.35;;;40.25;;
16039;SDS011;8124;48.634;8.120;2023-07-31T16:41:32;45.30;;;40.40;;
16039;SDS011;8124;48.634;8.120;2023-07-31T16:46:35;45.70;;;40.70;;
16039;SDS011;8124;48.634;8.120;2023-07-31T16:51:38;46.70;;;40.63;;
16039;SDS011;8124;48.634;8.120;2023-07-31T16:56:43;44.97;;;40.13;;
16039;SDS011;8124;48.634;8.120;2023-07-31T17:02:00;45.63;;;40.70;;
16039;SDS011;8124;48.634;8.120;2023-07-31T17:07:03;46.10;;;40.60;;
16039;SDS011;8124;48.634;8.120;2023-07-31T17:12:08;45.47;;;40.58;;
16039;SDS011;8124;48.634;8.120;2023-07-31T17:17:12;46.58;;;40.72;;
16039;SDS011;8124;48.634;8.120;2023-07-31T17:22:16;45.47;;;40.58;;
16039;SDS011;8124;48.634;8.120;2023-07-31T17:27:20;46.95;;;40.95;;
16039;SDS011;8124;48.634;8.120;2023-07-31T17:32:26;45.80;;;40.80;;
16039;SDS011;8124;48.634;8.120;2023-07-31T17:37:29;45.92;;;40.92;;
16039;SDS011;8124;48.634;8.120;2023-07-31T17:42:33;45.80;;;40.10;;
16039;SDS011;8124;48.634;8.120;2023-07-31T17:47:36;45.42;;;40.45;;
16039;SDS011;8124;48.634;8.120;2023-07-31T17:52:39;46.60;;;40.75;;
16039;SDS011;8124;48.634;8.120;2023-07-31T17:57:44;46.38;;;40.40;;
16039;SDS011;8124;48.634;8.120;2023-07-31T18:02:47;47.47;;;40.75;;
16039;SDS011;8124;48.634;8.120;2023-07-31T18:07:50;46.78;;;40.42;;
16039;SDS011;8124;48.634;8.120;2023-07-31T18:12:55;45.17;;;40.08;;
16039;SDS011;8124;48.634;8.120;2023-07-31T18:17:58;45.58;;;40.22;;
16039;SDS011;8124;48.634;8.120;2023-07-31T18:23:01;44.95;;;40.05;;
16039;SDS011;8124;48.634;8.120;2023-07-31T18:28:05;44.58;;;39.72;;
16039;SDS011;8124;48.634;8.120;2023-07-31T18:33:08;46.35;;;40.03;;
16039;SDS011;8124;48.634;8.120;2023-07-31T18:38:11;45.28;;;39.65;;
16039;SDS011;8124;48.634;8.120;2023-07-31T18:43:16;45.33;;;40.38;;
16039;SDS011;8124;48.634;8.120;2023-07-31T18:48:19;45.55;;;39.85;;
16039;SDS011;8124;48.634;8.120;2023-07-31T18:53:22;44.53;;;39.72;;
16039;SDS011;8124;48.634;8.120;2023-07-31T18:58:27;44.63;;;39.72;;
16039;SDS011;8124;48.634;8.120;2023-07-31T19:03:30;44.70;;;39.58;;
16039;SDS011;8124;48.634;8.120;2023-07-31T19:08:33;45.03;;;39.80;;
16039;SDS011;8124;48.634;8.120;2023-07-31T19:13:38;45.17;;;40.25;;
16039;SDS011;8124;48.634;8.120;2023-07-31T19:18:42;44.40;;;39.55;;
16039;SDS011;8124;48.634;8.120;2023-07-31T19:23:46;44.50;;;39.60;;
16039;SDS011;8124;48.634;8.120;2023-07-31T19:28:51;45.65;;;39.75;;
16039;SDS011;8124;48.634;8.120;2023-07-31T19:33:54;44.58;;;39.67;;
16039;SDS011;8124;48.634;8.120;2023-07-31T19:38:57;43.95;;;39.22;;
16039;SDS011;8124;48.634;8.120;2023-07-31T19:44:01;44.38;;;39.58;;
16039;SDS011;8124;48.634;8.120;2023-07-31T19:49:04;45.78;;;39.95;;
16039;SDS011;8124;48.634;8.120;2023-07-31T19:54:07;44.22;;;39.33;;
16039;SDS011;8124;48.634;8.120;2023-07-31T19:59:12;43.50;;;38.80;;
16039;SDS011;8124;48.634;8.120;2023-07-31T20:04:15;44.25;;;39.25;;
16039;SDS011;8124;48.634;8.120;2023-07-31T20:09:18;44.38;;;38.97;;
16039;SDS011;8124;48.634;8.120;2023-07-31T20:14:24;44.15;;;38.92;;
16039;SDS011;8124;48.634;8.120;2023-07-31T20:19:27;44.72;;;39.72;;
16039;SDS011;8124;48.634;8.120;2023-07-31T20:24:30;43.63;;;38.78;;
16039;SDS011;8124;48.634;8.120;2023-07-31T20:29:34;44.50;;;39.05;;
16039;SDS011;8124;48.634;8.120;2023-07-31T20:34:39;47.65;;;39.33;;
16039;SDS011;8124;48.634;8.120;2023-07-31T20:39:42;44.83;;;39.20;;
16039;SDS011;8124;48.634;8.120;2023-07-31T20:44:46;44.30;;;39.35;;
16039;SDS011;8124;48.634;8.120;2023-07-31T20:49:49;45.92;;;39.85;;
16039;SDS011;8124;48.634;8.120;2023-07-31T20:54:52;45.20;;;39.22;;
16039;SDS011;8124;48.634;8.120;2023-07-31T20:59:57;44.45;;;39.58;;
16039;SDS011;8124;48.634;8.120;2023-07-31T21:05:00;46.70;;;40.28;;
16039;SDS011;8124;48.634;8.120;2023-07-31T21:10:03;45.22;;;38.95;;
16039;SDS011;8124;48.634;8.120;2023-07-31T21:15:12;44.70;;;39.13;;
16039;SDS011;8124;48.634;8.120;2023-07-31T21:20:16;44.08;;;39.08;;
16039;SDS011;8124;48.634;8.120;2023-07-31T21:25:19;46.17;;;39.50;;
16039;SDS011;8124;48.634;8.120;2023-07-31T21:30:23;45.20;;;39.40;;
16039;SDS011;8124;48.634;8.120;2023-07-31T21:35:26;45.25;;;39.97;;
16039;SDS011;8124;48.634;8.120;2023-07-31T21:40:29;47.65;;;39.30;;
16039;SDS011;8124;48.634;8.120;2023-07-31T21:45:34;44.63;;;39.38;;
16039;SDS011;8124;48.634;8.120;2023-07-31T21:50:37;44.53;;;39.63;;
16039;SDS011;8124;48.634;8.120;2023-07-31T21:55:40;45.05;;;39.42;;
16039;SDS011;8124;48.634;8.120;2023-07-31T22:00:44;43.88;;;39.08;;
16039;SDS011;8124;48.634;8.120;2023-07-31T22:05:47;44.50;;;39.53;;
16039;SDS011;8124;48.634;8.120;2023-07-31T22:10:50;47.35;;;39.72;;
16039;SDS011;8124;48.634;8.120;2023-07-31T22:15:54;46.58;;;39.70;;
16039;SDS011;8124;48.634;8.120;2023-07-31T22:20:57;44.85;;;39.20;;
16039;SDS011;8124;48.634;8.120;2023-07-31T22:26:00;44.28;;;39.40;;
16039;SDS011;8124;48.634;8.120;2023-07-31T22:31:05;45.75;;;39.70;;
16039;SDS011;8124;48.634;8.120;2023-07-31T22:36:09;45.33;;;39.20;;
16039;SDS011;8124;48.634;8.120;2023-07-31T22:41:12;44.40;;;39.42;;
16039;SDS011;8124;48.634;8.120;2023-07-31T22:46:16;43.67;;;38.85;;
16039;SDS011;8124;48.634;8.120;2023-07-31T22:51:19;47.13;;;39.10;;
16039;SDS011;8124;48.634;8.120;2023-07-31T22:56:22;45.22;;;39.72;;
16039;SDS011;8124;48.634;8.120;2023-07-31T23:01:27;45.03;;;38.97;;
16039;SDS011;8124;48.634;8.120;2023-07-31T23:06:31;44.58;;;39.47;;
16039;SDS011;8124;48.634;8.120;2023-07-31T23:11:34;47.58;;;38.95;;
16039;SDS011;8124;48.634;8.120;2023-07-31T23:16:38;45.38;;;39.70;;
16039;SDS011;8124;48.634;8.120;2023-07-31T23:21:41;45.58;;;39.63;;
16039;SDS011;8124;48.634;8.120;2023-07-31T23:26:44;46.53;;;39.35;;
16039;SDS011;8124;48.634;8.120;2023-07-31T23:31:49;44.45;;;39.17;;
16039;SDS011;8124;48.634;8.120;2023-07-31T23:36:52;43.65;;;38.83;;
16039;SDS011;8124;48.634;8.120;2023-07-31T23:41:55;43.88;;;38.90;;
16039;SDS011;8124;48.634;8.120;2023-07-31T23:46:59;44.42;;;39.13;;
16039;SDS011;8124;48.634;8.120;2023-07-31T23:52:03;45.10;;;39.20;;
16039;SDS011;8124;48.634;8.120;2023-07-31T23:57:06;45.63;;;39.50;;
